Aeroporto :
LOGIN :

Iscrizione | Disclaimer

   EN    FR    IT 

 










Sommario :    VFR   VFR Marginale   IFR   IFR Intensivo   IFR Molto Intensivo
Visibilità : 
Base nubi : 
>= 8 km
>= 3000ft
5 / 8 km
1000 / 3000 ft
1500m / 5 km
500 / 1000 ft
800 / 1500m
200 / 500 ft
< 800m
< 200 ft
Simboli :   Temporali  Nebbia  Neve Forte  Precipitazioni Forti  Vento > 20 kt
SIGMETs :   Varie  Temporali  Ghiacco  Turbolenza  Onda orograficha  Ceneri Vulcaniche






- Altitudine del aeroporto : 297 ft
- Codice IATA : ODB


LEBA - Córdoba

ULTIMO METAR :
  • 182300Z AUTO 27002KT CAVOK 23/16 Q1017

METARs OBSOLETI :
  • 182230Z AUTO 00000KT CAVOK 25/16 Q1016
  • 182200Z AUTO VRB01KT CAVOK 25/16 Q1016
  • 182130Z AUTO 24001KT CAVOK 25/17 Q1016
  • 182100Z AUTO 19002KT CAVOK 27/16 Q1016
  • 182030Z AUTO VRB02KT CAVOK 28/17 Q1016
  • 182000Z AUTO 28001KT CAVOK 30/16 Q1016
  • 181930Z AUTO 25004KT 180V280 CAVOK 31/17 Q1016
  • 181900Z AUTO 12005KT 100V160 CAVOK 35/14 Q1015
  • 181830Z AUTO 12005KT CAVOK 35/15 Q1015

TAF TAF LEBA
Valido dal 18 a 15 ore il 19 a 15 ore UTC


181400Z 1815/1915 27005KT CAVOK TX41/1915Z TN21/1906Z



MetMap, La meteo Aeronautica in un colpo d'occhio ! - Copyright ORBIFLY Dicembre 2007 - Disclaimer

ORBIFLY MET'MAP TEAM :

Programmazione e sviluppo : Alexandra Zaïnal
Concezione : Baudouin d'Aumeries
Supporto tecnico e logistico : Manuel Goepfert
Aiuto : Marc-Olivier Méhu
Aiuto per la traduzione : Arnaldo La Scala




FONTI E CREDITI :

   NOAA